.
WxDataArchive / Data Records for 2016-03-03
2016-03-02 March 2016 2016-03-04

Data Records for Thursday, 03 March 2016

Time	Temp	Chill	HIndex	Humid	Dewpt	 Wind 	HiWind	WindDir	Rain 	Barom
-----	----	-----	------	-----	-----	------	------	-------	-----	-----
00:00	24.7	24.7	24.7	61	13.2	0	1	292	0.00	30.165 
00:05	24.7	24.7	24.7	60	12.8	0	3	315	0.00	30.165 
00:10	24.8	24.8	24.8	59	12.5	0	2	315	0.00	30.165 
00:15	25.0	25.0	25.0	58	12.3	0	2	315	0.00	30.169 
00:20	25.1	25.1	25.1	59	12.8	0	1	315	0.00	30.169 
00:25	25.1	25.1	25.1	59	12.8	0	1	315	0.00	30.169 
00:30	25.1	25.1	25.1	58	12.4	0	1	315	0.00	30.167 
00:35	25.3	25.3	25.3	58	12.6	0	1	315	0.00	30.167 
00:40	25.3	25.3	25.3	58	12.6	1	3	315	0.00	30.167 
00:45	25.3	25.3	25.3	58	12.6	0	2	315	0.00	30.168 
00:50	25.4	25.4	25.4	58	12.7	0	2	315	0.00	30.168 
00:55	25.4	25.4	25.4	58	12.7	0	1	315	0.00	30.168 
01:00	25.4	25.4	25.4	58	12.7	0	1	315	0.00	30.164 
01:05	25.4	25.4	25.4	58	12.7	0	2	315	0.00	30.164 
01:10	25.3	25.3	25.3	59	13.0	0	2	315	0.00	30.164 
01:15	25.3	25.3	25.3	59	13.0	0	2	315	0.00	30.163 
01:20	25.3	25.3	25.3	59	13.0	0	1	315	0.00	30.163 
01:25	25.3	25.3	25.3	59	13.0	0	1	315	0.00	30.163 
01:30	25.3	25.3	25.3	59	13.0	0	2	315	0.00	30.162 
01:35	25.3	25.3	25.3	60	13.4	0	1	315	0.00	30.162 
01:40	25.3	25.3	25.3	62	14.1	0	1	315	0.00	30.162 
01:45	25.3	25.3	25.3	62	14.1	0	1	315	0.00	30.162 
01:50	25.1	25.1	25.1	60	13.2	1	3	0	0.00	30.162 
01:55	25.1	25.1	25.1	59	12.8	1	3	0	0.00	30.162 
02:00	25.1	25.1	25.1	59	12.8	0	1	0	0.00	30.163 
02:05	25.1	25.1	25.1	59	12.8	1	3	0	0.00	30.163 
02:10	25.1	25.1	25.1	59	12.8	1	3	22	0.00	30.163 
02:15	25.1	25.1	25.1	59	12.8	1	3	22	0.00	30.164 
02:20	25.1	25.1	25.1	59	12.8	1	3	22	0.00	30.164 
02:25	25.3	25.3	25.3	59	13.0	0	2	22	0.00	30.164 
02:30	25.3	25.3	25.3	59	13.0	0	2	22	0.00	30.159 
02:35	25.3	25.3	25.3	59	13.0	0	3	22	0.00	30.159 
02:40	25.3	25.3	25.3	60	13.4	0	2	22	0.00	30.159 
02:45	25.4	25.4	25.4	59	13.1	0	3	22	0.00	30.158 
02:50	25.4	25.4	25.4	59	13.1	0	2	22	0.00	30.158 
02:55	25.4	25.4	25.4	59	13.1	1	3	22	0.00	30.158 
03:00	25.4	25.4	25.4	59	13.1	1	3	22	0.00	30.158 
03:05	25.4	25.4	25.4	60	13.5	0	2	45	0.00	30.158 
03:10	25.6	25.6	25.6	60	13.7	1	3	45	0.00	30.158 
03:15	25.6	25.6	25.6	61	14.0	1	5	45	0.00	30.147 
03:20	25.6	25.6	25.6	62	14.4	0	2	45	0.00	30.147 
03:25	25.7	25.7	25.7	62	14.5	1	4	45	0.00	30.147 
03:30	25.7	25.7	25.7	63	14.9	0	2	45	0.00	30.140 
03:35	25.7	25.7	25.7	63	14.9	1	3	45	0.00	30.140 
03:40	25.8	25.8	25.8	63	15.0	0	2	45	0.00	30.140 
03:45	25.8	25.8	25.8	64	15.3	1	3	45	0.00	30.139 
03:50	26.0	26.0	26.0	64	15.5	0	2	45	0.00	30.139 
03:55	26.0	26.0	26.0	64	15.5	0	2	45	0.00	30.139 
04:00	26.0	26.0	26.0	64	15.5	2	4	45	0.00	30.139 
04:05	26.0	26.0	26.0	65	15.9	1	4	45	0.00	30.139 
04:10	26.0	26.0	26.0	65	15.9	1	3	45	0.00	30.139 
04:15	26.0	26.0	26.0	66	16.2	0	2	45	0.00	30.133 
04:20	26.0	26.0	26.0	67	16.6	0	3	45	0.00	30.133 
04:25	26.0	26.0	26.0	68	16.9	1	4	45	0.00	30.133 
04:30	26.0	26.0	26.0	69	17.2	0	2	45	0.00	30.133 
04:35	25.8	25.8	25.8	70	17.4	1	3	45	0.00	30.133 
04:40	25.8	25.8	25.8	71	17.7	1	2	45	0.00	30.133 
04:45	25.8	25.8	25.8	71	17.7	0	2	45	0.00	30.128 
04:50	25.8	25.8	25.8	72	18.0	0	1	45	0.00	30.128 
04:55	25.8	25.8	25.8	72	18.0	0	2	45	0.00	30.128 
05:00	25.8	25.8	25.8	73	18.4	0	3	45	0.00	30.127 
05:05	25.7	25.7	25.7	72	17.9	2	4	68	0.00	30.127 
05:10	25.7	25.7	25.7	73	18.3	1	4	90	0.00	30.127 
05:15	25.8	25.8	25.8	73	18.4	0	2	90	0.00	30.126 
05:20	25.8	25.8	25.8	73	18.4	1	4	90	0.00	30.126 
05:25	25.8	25.8	25.8	73	18.4	0	2	90	0.00	30.126 
05:30	25.8	25.8	25.8	73	18.4	1	4	90	0.00	30.121 
05:35	25.8	25.8	25.8	74	18.7	0	3	90	0.00	30.121 
05:40	25.7	25.7	25.7	75	18.9	1	4	90	0.00	30.121 
05:45	25.7	25.7	25.7	75	18.9	1	3	90	0.00	30.126 
05:50	25.7	25.7	25.7	75	18.9	1	3	90	0.00	30.126 
05:55	25.6	25.6	25.6	74	18.5	2	6	90	0.00	30.126 
06:00	25.6	25.6	25.6	74	18.5	1	4	90	0.00	30.129 
06:05	25.7	25.7	25.7	75	18.9	1	3	90	0.00	30.129 
06:10	25.7	25.7	25.7	75	18.9	1	4	90	0.00	30.129 
06:15	25.7	25.7	25.7	75	18.9	1	4	90	0.00	30.131 
06:20	25.8	25.8	25.8	75	19.0	1	3	90	0.00	30.131 
06:25	25.8	25.8	25.8	75	19.0	1	4	90	0.00	30.131 
06:30	25.7	25.7	25.7	75	18.9	2	5	90	0.00	30.130 
06:35	25.7	25.7	25.7	76	19.2	2	5	90	0.00	30.130 
06:40	25.6	25.6	25.6	77	19.4	2	4	90	0.00	30.130 
06:45	25.6	25.6	25.6	78	19.7	1	4	90	0.00	30.134 
06:50	25.6	25.6	25.6	79	20.0	1	4	90	0.00	30.134 
06:55	25.4	25.4	25.4	79	19.8	2	6	90	0.00	30.134 
07:00	25.4	25.4	25.4	80	20.1	1	4	112	0.00	30.135 
07:05	25.4	25.4	25.4	80	20.1	1	4	112	0.00	30.135 
07:10	25.4	25.4	25.4	81	20.4	2	4	90	0.00	30.135 
07:15	25.4	25.4	25.4	81	20.4	2	4	90	0.00	30.139 
07:20	25.4	25.4	25.4	81	20.4	1	5	90	0.00	30.139 
07:25	25.4	25.4	25.4	82	20.7	1	4	90	0.00	30.139 
07:30	25.3	25.3	25.3	83	20.9	2	4	90	0.00	30.131 
07:35	25.3	25.3	25.3	84	21.2	2	3	90	0.00	30.131 
07:40	25.3	25.3	25.3	84	21.2	2	4	90	0.00	30.131 
07:45	25.1	25.1	25.1	85	21.2	2	5	90	0.00	30.129 
07:50	25.1	25.1	25.1	85	21.2	1	4	90	0.00	30.129 
07:55	25.3	25.3	25.3	86	21.7	3	5	90	0.00	30.129 
08:00	25.3	25.3	25.3	86	21.7	2	6	90	0.00	30.126 
08:05	25.3	25.3	25.3	86	21.7	2	7	90	0.00	30.126 
08:10	25.3	25.3	25.3	87	22.0	2	6	90	0.00	30.126 
08:15	25.4	25.4	25.4	87	22.1	2	5	90	0.00	30.120 
08:20	25.4	25.4	25.4	87	22.1	2	6	90	0.00	30.120 
08:25	25.6	25.6	25.6	88	22.5	1	3	90	0.00	30.120 
08:30	25.6	25.6	25.6	88	22.5	1	4	90	0.00	30.130 
08:35	25.7	25.7	25.7	88	22.6	1	4	90	0.00	30.130 
08:40	25.7	25.7	25.7	88	22.6	3	6	90	0.00	30.130 
08:45	25.7	25.7	25.7	89	22.9	3	6	112	0.00	30.121 
08:50	25.7	25.7	25.7	89	22.9	2	4	112	0.00	30.121 
08:55	25.8	25.8	25.8	89	23.0	2	5	112	0.00	30.121 
09:00	26.0	26.0	26.0	89	23.2	2	4	112	0.00	30.122 
09:05	26.0	26.0	26.0	89	23.2	3	6	90	0.00	30.122 
09:10	26.0	26.0	26.0	89	23.2	2	5	90	0.00	30.122 
09:15	26.1	26.1	26.1	89	23.3	2	5	90	0.00	30.114 
09:20	26.3	26.3	26.3	89	23.5	2	5	90	0.00	30.114 
09:25	26.3	26.3	26.3	89	23.5	2	5	90	0.00	30.114 
09:30	26.4	26.4	26.4	90	23.9	2	4	90	0.00	30.112 
09:35	26.4	26.4	26.4	90	23.9	3	5	90	0.00	30.112 
09:40	26.6	26.6	26.6	90	24.1	3	5	90	0.00	30.112 
09:45	26.7	26.7	26.7	90	24.2	3	6	90	0.00	30.097 
09:50	26.9	26.9	26.9	90	24.4	3	6	112	0.00	30.097 
09:55	27.2	27.2	27.2	90	24.7	2	5	90	0.00	30.097 
10:00	27.3	27.3	27.3	90	24.8	2	7	112	0.00	30.096 
10:05	27.5	27.5	27.5	89	24.7	2	4	68	0.00	30.096 
10:10	27.6	27.6	27.6	89	24.8	2	4	68	0.00	30.096 
10:15	27.6	27.6	27.6	89	24.8	3	6	68	0.00	30.093 
10:20	27.8	27.8	27.8	89	25.0	3	7	90	0.00	30.093 
10:25	27.9	27.9	27.9	89	25.1	2	5	112	0.00	30.093 
10:30	27.9	27.9	27.9	89	25.1	3	5	90	0.00	30.094 
10:35	27.9	27.9	27.9	89	25.1	2	5	90	0.00	30.094 
10:40	27.9	27.9	27.9	90	25.4	2	3	90	0.00	30.094 
10:45	27.9	27.9	27.9	90	25.4	1	4	90	0.00	30.098 
10:50	27.9	27.9	27.9	89	25.1	3	5	90	0.00	30.098 
10:55	27.9	27.9	27.9	90	25.4	1	5	68	0.00	30.098 
11:00	28.1	28.1	28.1	90	25.6	2	4	68	0.00	30.101 
11:05	28.2	28.2	28.2	90	25.7	2	4	68	0.00	30.101 
11:10	28.4	28.4	28.4	90	25.8	2	4	68	0.00	30.101 
11:15	28.4	28.4	28.4	90	25.8	2	5	90	0.00	30.101 
11:20	28.5	28.5	28.5	90	25.9	2	4	90	0.00	30.101 
11:25	28.7	28.7	28.7	90	26.1	1	4	90	0.00	30.101 
11:30	28.8	28.8	28.8	90	26.2	1	3	90	0.00	30.101 
11:35	29.0	29.0	29.0	90	26.4	1	4	90	0.00	30.101 
11:40	29.0	29.0	29.0	90	26.4	1	3	90	0.00	30.101 
11:45	29.0	29.0	29.0	90	26.4	2	4	90	0.00	30.099 
11:50	29.0	29.0	29.0	90	26.4	1	4	90	0.00	30.099 
11:55	29.0	29.0	29.0	90	26.4	0	2	90	0.00	30.099 
12:00	29.1	29.1	29.1	90	26.5	1	3	90	0.00	30.106 
12:05	29.1	29.1	29.1	90	26.5	1	3	90	0.00	30.106 
12:10	29.3	29.3	29.3	90	26.7	1	2	90	0.00	30.106 
12:15	29.3	29.3	29.3	90	26.7	2	4	90	0.00	30.104 
12:20	29.3	29.3	29.3	90	26.7	2	4	90	0.00	30.104 
12:25	29.5	29.5	29.5	91	27.2	1	3	90	0.00	30.104 
12:30	29.5	29.5	29.5	90	26.9	1	5	90	0.00	30.097 
12:35	29.5	29.5	29.5	91	27.2	1	4	90	0.00	30.097 
12:40	29.5	29.5	29.5	91	27.2	2	5	90	0.00	30.097 
12:45	29.5	29.5	29.5	91	27.2	1	4	90	0.00	30.087 
12:50	29.8	29.8	29.8	91	27.5	2	5	68	0.00	30.087 
12:55	29.8	29.8	29.8	91	27.5	2	4	68	0.00	30.087 
13:00	29.8	29.8	29.8	91	27.5	1	4	68	0.00	30.084 
13:05	30.0	30.0	30.0	90	27.4	2	5	135	0.00	30.084 
13:10	30.0	30.0	30.0	90	27.4	2	5	112	0.00	30.084 
13:15	30.1	30.1	30.1	90	27.5	1	6	112	0.00	30.076 
13:20	30.1	30.1	30.1	90	27.5	1	4	112	0.00	30.076 
13:25	30.3	30.3	30.3	90	27.7	2	4	112	0.00	30.076 
13:30	30.3	30.3	30.3	90	27.7	2	5	112	0.00	30.063 
13:35	30.4	30.4	30.4	90	27.8	2	6	90	0.00	30.063 
13:40	30.4	30.4	30.4	90	27.8	2	4	90	0.00	30.063 
13:45	30.6	30.6	30.6	90	28.0	3	5	90	0.00	30.050 
13:50	30.7	30.7	30.7	90	28.1	3	5	90	0.00	30.050 
13:55	30.9	30.9	30.9	90	28.3	2	6	90	0.00	30.050 
14:00	30.9	30.9	30.9	90	28.3	3	6	90	0.00	30.046 
14:05	30.9	30.9	30.9	90	28.3	2	7	112	0.00	30.046 
14:10	31.0	31.0	31.0	90	28.4	1	3	112	0.00	30.046 
14:15	31.2	31.2	31.2	90	28.6	1	5	112	0.00	30.046 
14:20	31.2	31.2	31.2	89	28.3	1	5	112	0.01	30.046 
14:25	31.2	31.2	31.2	89	28.3	2	5	112	0.00	30.046 
14:30	31.0	31.0	31.0	89	28.1	2	5	112	0.00	30.044 
14:35	31.0	31.0	31.0	89	28.1	2	4	90	0.00	30.044 
14:40	31.0	31.0	31.0	90	28.4	2	5	90	0.00	30.044 
14:45	31.0	31.0	31.0	90	28.4	2	6	90	0.00	30.036 
14:50	31.0	31.0	31.0	90	28.4	1	4	90	0.00	30.036 
14:55	31.2	31.2	31.2	90	28.6	1	5	90	0.00	30.036 
15:00	31.3	31.3	31.3	90	28.7	1	4	90	0.00	30.031 
15:05	31.5	31.5	31.5	91	29.2	1	3	90	0.01	30.031 
15:10	31.5	31.5	31.5	91	29.2	2	4	90	0.00	30.031 
15:15	31.6	31.6	31.6	91	29.3	0	4	90	0.00	30.027 
15:20	31.5	31.5	31.5	91	29.2	2	4	90	0.00	30.027 
15:25	31.5	31.5	31.5	91	29.2	1	4	90	0.00	30.027 
15:30	31.5	31.5	31.5	91	29.2	1	3	90	0.01	30.024 
15:35	31.5	31.5	31.5	91	29.2	2	5	90	0.00	30.024 
15:40	31.6	31.6	31.6	91	29.3	2	5	90	0.00	30.024 
15:45	31.6	31.6	31.6	91	29.3	1	4	90	0.00	30.019 
15:50	31.8	31.8	31.8	91	29.5	2	5	90	0.01	30.019 
15:55	31.8	31.8	31.8	92	29.7	0	3	90	0.00	30.019 
16:00	31.8	31.8	31.8	92	29.7	1	3	90	0.00	30.021 
16:05	31.8	31.8	31.8	92	29.7	0	2	90	0.00	30.021 
16:10	31.8	31.8	31.8	91	29.5	2	6	90	0.00	30.021 
16:15	31.5	31.5	31.5	92	29.4	1	5	90	0.00	30.019 
16:20	31.5	31.5	31.5	92	29.4	0	1	90	0.01	30.019 
16:25	31.6	31.6	31.6	92	29.5	0	0	---	0.00	30.019 
16:30	31.6	31.6	31.6	92	29.5	0	0	---	0.00	30.013 
16:35	31.6	31.6	31.6	92	29.5	0	0	---	0.00	30.013 
16:40	31.6	31.6	31.6	92	29.5	0	0	---	0.00	30.013 
16:45	31.8	31.8	31.8	92	29.7	0	0	---	0.00	30.012 
16:50	31.8	31.8	31.8	92	29.7	0	0	---	0.00	30.012 
16:55	31.8	31.8	31.8	92	29.7	0	0	---	0.00	30.012 
17:00	31.8	31.8	31.8	92	29.7	0	0	---	0.00	30.006 
17:05	31.8	31.8	31.8	92	29.7	0	0	---	0.00	30.006 
17:10	31.9	31.9	31.9	92	29.8	0	0	---	0.00	30.006 
17:15	31.9	31.9	31.9	92	29.8	0	0	---	0.01	30.008 
17:20	31.8	31.8	31.8	92	29.7	0	0	---	0.00	30.008 
17:25	31.8	31.8	31.8	92	29.7	0	0	---	0.00	30.008 
17:30	31.8	31.8	31.8	92	29.7	0	0	---	0.00	30.009 
17:35	31.8	31.8	31.8	92	29.7	0	0	---	0.00	30.009 
17:40	31.9	31.9	31.9	92	29.8	0	0	---	0.00	30.009 
17:45	31.8	31.8	31.8	93	30.0	0	0	---	0.00	30.012 
17:50	31.9	31.9	31.9	93	30.1	0	0	---	0.00	30.012 
17:55	31.9	31.9	31.9	93	30.1	0	0	---	0.00	30.012 
18:00	31.9	31.9	31.9	93	30.1	0	0	---	0.00	30.011 
18:05	31.9	31.9	31.9	93	30.1	0	0	---	0.00	30.011 
18:10	31.9	31.9	31.9	93	30.1	0	0	---	0.00	30.011 
18:15	31.8	31.8	31.8	93	30.0	0	0	---	0.00	30.013 
18:20	31.8	31.8	31.8	93	30.0	0	0	---	0.00	30.013 
18:25	31.8	31.8	31.8	93	30.0	0	0	---	0.00	30.013 
18:30	31.8	31.8	31.8	93	30.0	0	0	---	0.00	30.014 
18:35	31.8	31.8	31.8	93	30.0	0	0	---	0.00	30.014 
18:40	31.8	31.8	31.8	93	30.0	0	0	---	0.00	30.014 
18:45	31.8	31.8	31.8	93	30.0	0	0	---	0.00	30.019 
18:50	31.8	31.8	31.8	93	30.0	0	0	---	0.00	30.019 
18:55	31.6	31.6	31.6	93	29.8	0	0	---	0.00	30.019 
19:00	31.6	31.6	31.6	93	29.8	0	0	---	0.00	30.020 
19:05	31.6	31.6	31.6	93	29.8	0	0	---	0.00	30.020 
19:10	31.6	31.6	31.6	93	29.8	0	0	---	0.00	30.020 
19:15	31.6	31.6	31.6	93	29.8	0	0	---	0.00	30.025 
19:20	31.6	31.6	31.6	93	29.8	0	0	---	0.00	30.025 
19:25	31.5	31.5	31.5	94	30.0	0	0	---	0.00	30.025 
19:30	31.5	31.5	31.5	94	30.0	0	0	---	0.00	30.028 
19:35	31.5	31.5	31.5	94	30.0	0	0	---	0.00	30.028 
19:40	31.5	31.5	31.5	94	30.0	0	0	---	0.00	30.028 
19:45	31.5	31.5	31.5	94	30.0	0	0	---	0.00	30.030 
19:50	31.3	31.3	31.3	94	29.8	0	0	---	0.00	30.030 
19:55	31.3	31.3	31.3	94	29.8	0	0	---	0.00	30.030 
20:00	31.3	31.3	31.3	94	29.8	0	0	---	0.00	30.032 
20:05	31.2	31.2	31.2	94	29.7	0	0	---	0.00	30.032 
20:10	31.2	31.2	31.2	94	29.7	0	0	---	0.00	30.032 
20:15	31.2	31.2	31.2	94	29.7	0	0	---	0.00	30.034 
20:20	31.0	31.0	31.0	94	29.5	0	0	---	0.00	30.034 
20:25	31.0	31.0	31.0	94	29.5	0	0	---	0.00	30.034 
20:30	31.0	31.0	31.0	94	29.5	0	0	---	0.00	30.037 
20:35	31.0	31.0	31.0	94	29.5	0	0	---	0.00	30.037 
20:40	30.9	30.9	30.9	94	29.4	0	0	---	0.00	30.037 
20:45	30.9	30.9	30.9	94	29.4	0	0	---	0.00	30.036 
20:50	30.9	30.9	30.9	94	29.4	0	0	---	0.01	30.036 
20:55	30.9	30.9	30.9	94	29.4	0	0	---	0.00	30.036 
21:00	30.9	30.9	30.9	94	29.4	0	0	---	0.00	30.037 
21:05	30.9	30.9	30.9	94	29.4	0	0	---	0.00	30.037 
21:10	30.9	30.9	30.9	94	29.4	0	0	---	0.00	30.037 
21:15	30.9	30.9	30.9	94	29.4	0	0	---	0.00	30.038 
21:20	30.9	30.9	30.9	94	29.4	0	0	---	0.00	30.038 
21:25	30.7	30.7	30.7	94	29.2	0	0	---	0.00	30.038 
21:30	30.7	30.7	30.7	94	29.2	0	0	---	0.00	30.037 
21:35	30.7	30.7	30.7	94	29.2	0	0	---	0.00	30.037 
21:40	30.7	30.7	30.7	94	29.2	0	0	---	0.00	30.037 
21:45	30.7	30.7	30.7	94	29.2	0	0	---	0.00	30.038 
21:50	30.7	30.7	30.7	94	29.2	0	0	---	0.00	30.038 
21:55	30.7	30.7	30.7	94	29.2	0	0	---	0.00	30.038 
22:00	30.7	30.7	30.7	94	29.2	0	0	---	0.00	30.033 
22:05	30.7	30.7	30.7	94	29.2	0	0	---	0.00	30.033 
22:10	30.7	30.7	30.7	94	29.2	0	0	---	0.00	30.033 
22:15	30.7	30.7	30.7	94	29.2	0	0	---	0.00	30.029 
22:20	30.7	30.7	30.7	94	29.2	0	0	---	0.00	30.029 
22:25	30.6	30.6	30.6	94	29.1	0	0	---	0.00	30.029 
22:30	30.6	30.6	30.6	94	29.1	0	0	---	0.00	30.034 
22:35	30.6	30.6	30.6	94	29.1	0	0	---	0.00	30.034 
22:40	30.6	30.6	30.6	94	29.1	0	0	---	0.00	30.034 
22:45	30.6	30.6	30.6	94	29.1	0	0	---	0.00	30.040 
22:50	30.6	30.6	30.6	94	29.1	0	0	---	0.00	30.040 
22:55	30.6	30.6	30.6	94	29.1	0	0	---	0.00	30.040 
23:00	30.6	30.6	30.6	94	29.1	0	0	---	0.00	30.041 
23:05	30.6	30.6	30.6	94	29.1	0	0	---	0.00	30.041 
23:10	30.6	30.6	30.6	94	29.1	0	0	---	0.00	30.041 
23:15	30.4	30.4	30.4	94	28.9	0	0	---	0.00	30.040 
23:20	30.4	30.4	30.4	94	28.9	0	0	---	0.00	30.040 
23:25	30.4	30.4	30.4	94	28.9	0	0	---	0.00	30.040 
23:30	30.4	30.4	30.4	94	28.9	0	0	---	0.00	30.042 
23:35	30.4	30.4	30.4	94	28.9	0	0	---	0.00	30.042 
23:40	30.4	30.4	30.4	94	28.9	0	0	---	0.00	30.042 
23:45	30.4	30.4	30.4	94	28.9	0	0	---	0.00	30.042 
23:50	30.4	30.4	30.4	94	28.9	0	0	---	0.00	30.042 
23:55	30.4	30.4	30.4	94	28.9	0	0	---	0.00	30.042 

CoCoRaHS
IN-AL-39
A2 Web Hosting
Creative Commons License
GoDaddy
search engine by freefind advanced

loaded 2018-11-20 03:41:23 • last modified 2010-11-18 10:43:29
Privacy PolicyDisclaimer
• wx.awcolley.com is powered by PmWiki v.2002016 •
• all content (unless otherwise noted) © 2018 A W Colley